createdAt,value
2017-12-13T00:00:08.342Z,2.20
2017-12-13T00:02:41.418Z,2.20
2017-12-13T00:05:10.350Z,2.20
2017-12-13T00:07:41.418Z,2.20
2017-12-13T00:10:12.212Z,2.20
2017-12-13T00:12:43.442Z,2.20
2017-12-13T00:15:19.882Z,2.10
2017-12-13T00:17:53.891Z,2.10
2017-12-13T00:20:29.460Z,2.10
2017-12-13T00:23:02.582Z,2.10
2017-12-13T00:25:45.651Z,2.20
2017-12-13T00:28:15.272Z,2.20
2017-12-13T00:30:47.742Z,2.20
2017-12-13T00:33:27.986Z,2.20
2017-12-13T00:36:16.048Z,2.20
2017-12-13T00:38:51.410Z,2.20
2017-12-13T00:41:27.344Z,2.20
2017-12-13T00:46:59.835Z,2.20
2017-12-13T00:49:32.017Z,2.10
2017-12-13T00:52:00.186Z,2.10
2017-12-13T00:54:33.199Z,2.10
2017-12-13T00:57:12.491Z,2.20
2017-12-13T00:59:42.771Z,2.10
2017-12-13T01:02:10.948Z,2.10
2017-12-13T01:04:46.627Z,2.10
2017-12-13T01:07:14.747Z,2.10
2017-12-13T01:09:46.938Z,2.00
2017-12-13T01:12:15.133Z,2.00
2017-12-13T01:14:43.294Z,2.00
2017-12-13T01:17:17.731Z,2.00
2017-12-13T01:19:46.871Z,2.00
2017-12-13T01:22:16.081Z,2.00
2017-12-13T01:24:44.302Z,2.10
2017-12-13T01:27:12.503Z,2.00
2017-12-13T01:29:44.883Z,2.00
2017-12-13T01:32:17.315Z,2.00
2017-12-13T01:35:02.829Z,2.00
2017-12-13T01:37:48.598Z,2.00
2017-12-13T01:40:17.715Z,2.00
2017-12-13T01:42:46.826Z,2.00
2017-12-13T01:45:18.142Z,2.00
2017-12-13T01:47:47.325Z,2.00
2017-12-13T01:53:28.495Z,2.00
2017-12-13T01:56:08.177Z,1.90
2017-12-13T01:58:36.649Z,2.00
2017-12-13T02:01:05.024Z,2.00
2017-12-13T02:03:47.139Z,2.00
2017-12-13T02:06:16.167Z,2.00
2017-12-13T02:08:47.297Z,2.00
2017-12-13T02:11:17.384Z,1.90
2017-12-13T02:13:46.817Z,1.90
2017-12-13T02:16:15.228Z,2.00
2017-12-13T02:18:48.919Z,2.00
2017-12-13T02:26:38.876Z,2.00
2017-12-13T02:32:15.850Z,1.70
2017-12-13T02:34:44.797Z,1.20
2017-12-13T02:37:12.951Z,1.20
2017-12-13T02:39:47.112Z,1.10
2017-12-13T02:42:15.254Z,1.00
2017-12-13T02:44:46.553Z,0.90
2017-12-13T02:47:16.637Z,0.80
2017-12-13T02:49:48.409Z,0.70
2017-12-13T02:52:18.498Z,0.60
2017-12-13T02:54:47.681Z,0.50
2017-12-13T02:57:19.699Z,0.40
2017-12-13T02:59:47.846Z,0.40
2017-12-13T03:02:34.972Z,0.40
2017-12-13T03:05:03.095Z,0.40
2017-12-13T03:07:36.298Z,0.40
2017-12-13T03:10:04.430Z,0.40
2017-12-13T03:12:36.849Z,0.30
2017-12-13T03:15:06.897Z,0.30
2017-12-13T03:17:40.889Z,0.40
2017-12-13T03:20:10.918Z,0.40
2017-12-13T03:22:39.180Z,0.40
2017-12-13T03:25:07.322Z,0.50
2017-12-13T03:27:46.513Z,0.40
2017-12-13T03:30:15.562Z,0.40
2017-12-13T03:32:49.169Z,0.40
2017-12-13T03:35:17.393Z,0.40
2017-12-13T03:37:45.624Z,0.30
2017-12-13T03:40:17.620Z,0.20
2017-12-13T03:42:46.885Z,0.20
2017-12-13T03:45:15.003Z,0.10
2017-12-13T03:47:44.200Z,0.00
2017-12-13T03:50:14.289Z,0.00
2017-12-13T03:52:49.829Z,-0.10
2017-12-13T03:55:25.533Z,-0.20
2017-12-13T03:57:54.660Z,-0.10
2017-12-13T04:00:40.327Z,-0.10
2017-12-13T04:03:09.258Z,-0.10
2017-12-13T04:05:41.262Z,-0.10
2017-12-13T04:08:14.775Z,0.00
2017-12-13T04:10:48.814Z,0.00
2017-12-13T04:13:32.139Z,0.10
2017-12-13T04:16:00.330Z,0.20
2017-12-13T04:18:30.398Z,0.20
2017-12-13T04:20:59.340Z,0.20
2017-12-13T04:23:27.677Z,0.20
2017-12-13T04:25:56.566Z,0.30
2017-12-13T04:28:24.677Z,0.30
2017-12-13T04:31:10.682Z,0.20
2017-12-13T04:33:44.656Z,0.10
2017-12-13T04:36:19.654Z,0.10
2017-12-13T04:38:48.793Z,0.10
2017-12-13T04:41:17.941Z,0.20
2017-12-13T04:43:52.087Z,0.20
2017-12-13T04:46:21.059Z,0.20
2017-12-13T04:48:49.215Z,0.10
2017-12-13T04:51:21.391Z,0.20
2017-12-13T04:53:50.302Z,0.20
2017-12-13T04:56:18.469Z,0.20
2017-12-13T04:58:46.600Z,0.20
2017-12-13T05:01:20.545Z,0.20
2017-12-13T05:03:55.632Z,0.20
2017-12-13T05:06:24.674Z,0.30
2017-12-13T05:08:53.969Z,0.40
2017-12-13T05:11:22.102Z,0.50
2017-12-13T05:14:05.889Z,0.50
2017-12-13T05:16:35.937Z,0.50
2017-12-13T05:19:05.980Z,0.50
2017-12-13T05:21:39.106Z,0.50
2017-12-13T05:24:07.297Z,0.60
2017-12-13T05:26:35.422Z,0.60
2017-12-13T05:32:03.316Z,0.60
2017-12-13T05:34:33.468Z,0.70
2017-12-13T05:37:03.563Z,0.70
2017-12-13T05:39:35.628Z,0.80
2017-12-13T05:42:03.922Z,0.80
2017-12-13T05:44:42.976Z,0.80
2017-12-13T05:47:14.995Z,0.80
2017-12-13T05:49:44.871Z,0.80
2017-12-13T05:52:16.751Z,0.90
2017-12-13T05:54:47.075Z,0.90
2017-12-13T05:57:16.222Z,0.90
2017-12-13T05:59:49.145Z,0.90
2017-12-13T06:02:29.533Z,0.90
2017-12-13T06:04:58.629Z,0.90
2017-12-13T06:07:31.241Z,0.90
2017-12-13T06:10:12.545Z,0.90
2017-12-13T06:12:44.607Z,0.90
2017-12-13T06:15:12.733Z,0.90
2017-12-13T06:17:46.975Z,1.00
2017-12-13T06:20:19.962Z,1.00
2017-12-13T06:22:58.315Z,1.00
2017-12-13T06:25:26.513Z,1.00
2017-12-13T06:27:54.680Z,1.00
2017-12-13T06:30:22.882Z,0.90
2017-12-13T06:32:51.896Z,0.90
2017-12-13T06:35:22.115Z,0.90
2017-12-13T06:37:58.626Z,0.80
2017-12-13T06:40:29.922Z,0.90
2017-12-13T06:42:59.115Z,0.90
2017-12-13T06:45:27.346Z,0.90
2017-12-13T06:47:56.405Z,0.90
2017-12-13T06:50:26.557Z,0.80
2017-12-13T06:52:54.768Z,0.90
2017-12-13T06:55:25.020Z,0.80
2017-12-13T06:57:54.192Z,0.80
2017-12-13T07:00:23.127Z,0.70
2017-12-13T07:02:54.946Z,0.70
2017-12-13T07:05:23.866Z,0.60
2017-12-13T07:07:57.318Z,0.60
2017-12-13T07:10:25.514Z,0.50
2017-12-13T07:15:53.942Z,0.50
2017-12-13T07:18:25.967Z,0.50
2017-12-13T07:21:03.088Z,0.50
2017-12-13T07:23:35.199Z,0.50
2017-12-13T07:26:05.361Z,0.40
2017-12-13T07:28:33.568Z,0.40
2017-12-13T07:31:03.118Z,0.40
2017-12-13T07:33:45.674Z,0.40
2017-12-13T07:36:13.834Z,0.30
2017-12-13T07:38:42.017Z,0.40
2017-12-13T07:41:17.481Z,0.40
2017-12-13T07:43:47.676Z,0.40
2017-12-13T07:46:16.110Z,0.40
2017-12-13T07:48:45.238Z,0.40
2017-12-13T07:51:13.442Z,0.40
2017-12-13T07:53:43.538Z,0.40
2017-12-13T07:56:11.672Z,0.50
2017-12-13T07:58:40.172Z,0.60
2017-12-13T08:01:08.367Z,0.70
2017-12-13T08:03:38.707Z,0.80
2017-12-13T08:06:08.531Z,0.90
2017-12-13T08:08:40.899Z,1.00
2017-12-13T08:11:09.173Z,1.00
2017-12-13T08:13:39.136Z,1.10
2017-12-13T08:16:14.819Z,1.10
2017-12-13T08:18:43.112Z,1.20
2017-12-13T08:21:20.070Z,1.20
2017-12-13T08:23:48.215Z,1.30
2017-12-13T08:26:16.347Z,1.30
2017-12-13T08:28:44.534Z,1.30
2017-12-13T08:31:12.758Z,1.40
2017-12-13T08:33:42.858Z,1.40
2017-12-13T08:36:12.996Z,1.50
2017-12-13T08:38:41.190Z,1.50
2017-12-13T08:41:09.290Z,1.60
2017-12-13T08:43:42.498Z,1.70
2017-12-13T08:46:10.691Z,1.80
2017-12-13T08:48:38.843Z,1.90
2017-12-13T08:51:06.998Z,1.90
2017-12-13T08:53:35.159Z,1.90
2017-12-13T08:56:05.090Z,1.90
2017-12-13T08:58:34.016Z,2.00
2017-12-13T09:01:02.930Z,2.00
2017-12-13T09:03:31.140Z,2.00
2017-12-13T09:05:59.262Z,2.10
2017-12-13T09:08:37.696Z,2.10
2017-12-13T09:11:05.873Z,2.20
2017-12-13T09:13:34.018Z,2.30
2017-12-13T09:16:02.377Z,2.30
2017-12-13T09:18:30.691Z,2.40
2017-12-13T09:21:06.078Z,2.40
2017-12-13T09:23:34.334Z,2.50
2017-12-13T09:26:08.284Z,2.60
2017-12-13T09:28:41.896Z,2.70
2017-12-13T09:31:11.739Z,2.80
2017-12-13T09:33:39.903Z,2.90
2017-12-13T09:36:08.030Z,2.90
2017-12-13T09:38:37.286Z,3.00
2017-12-13T09:41:06.787Z,3.10
2017-12-13T09:43:35.052Z,3.20
2017-12-13T09:46:03.182Z,3.20
2017-12-13T09:48:38.753Z,3.30
2017-12-13T09:51:08.363Z,3.30
2017-12-13T09:53:45.087Z,3.30
2017-12-13T09:56:13.997Z,3.40
2017-12-13T09:58:42.261Z,3.30
2017-12-13T10:04:05.504Z,3.40
2017-12-13T10:06:39.470Z,3.40
2017-12-13T10:09:07.675Z,3.40
2017-12-13T10:11:35.942Z,3.50
2017-12-13T10:14:04.203Z,3.40
2017-12-13T10:16:37.196Z,3.40
2017-12-13T10:19:05.385Z,3.40
2017-12-13T10:21:33.901Z,3.40
2017-12-13T10:24:02.103Z,3.40
2017-12-13T10:26:30.478Z,3.50
2017-12-13T10:29:00.520Z,3.50
2017-12-13T10:31:28.718Z,3.60
2017-12-13T10:33:58.853Z,3.60
2017-12-13T10:36:28.030Z,3.60
2017-12-13T10:39:00.812Z,3.60
2017-12-13T10:41:31.137Z,3.60
2017-12-13T10:44:01.240Z,3.60
2017-12-13T10:46:29.404Z,3.60
2017-12-13T10:48:58.508Z,3.60
2017-12-13T10:51:33.402Z,3.60
2017-12-13T10:54:09.039Z,3.60
2017-12-13T10:56:38.204Z,3.50
2017-12-13T10:59:06.422Z,3.60
2017-12-13T11:01:38.572Z,3.50
2017-12-13T11:04:09.774Z,3.60
2017-12-13T11:06:40.217Z,3.60
2017-12-13T11:09:08.434Z,3.60
2017-12-13T11:11:36.769Z,3.70
2017-12-13T11:14:09.818Z,3.70
2017-12-13T11:16:38.467Z,3.70
2017-12-13T11:19:06.794Z,3.80
2017-12-13T11:21:37.006Z,3.80
2017-12-13T11:24:09.367Z,3.80
2017-12-13T11:26:40.751Z,3.80
2017-12-13T11:29:17.208Z,3.80
2017-12-13T11:31:46.557Z,3.70
2017-12-13T11:34:16.174Z,3.70
2017-12-13T11:36:47.883Z,3.60
2017-12-13T11:39:18.296Z,3.60
2017-12-13T11:41:51.431Z,3.50
2017-12-13T11:44:19.798Z,3.50
2017-12-13T11:46:48.686Z,3.30
2017-12-13T11:49:18.882Z,3.20
2017-12-13T11:51:48.121Z,3.20
2017-12-13T11:57:15.595Z,3.10
2017-12-13T11:59:46.941Z,2.90
2017-12-13T12:02:16.983Z,2.90
2017-12-13T12:04:45.266Z,2.80
2017-12-13T12:07:18.274Z,2.70
2017-12-13T12:10:08.143Z,2.70
2017-12-13T12:12:36.402Z,2.70
2017-12-13T12:15:10.924Z,2.70
2017-12-13T12:17:39.408Z,2.70
2017-12-13T12:20:07.759Z,2.70
2017-12-13T12:22:35.999Z,2.70
2017-12-13T12:25:04.179Z,2.70
2017-12-13T12:27:32.313Z,2.70
2017-12-13T12:30:01.097Z,2.80
2017-12-13T12:32:29.365Z,2.70
2017-12-13T12:35:09.256Z,2.70
2017-12-13T12:37:37.472Z,2.70
2017-12-13T12:40:06.011Z,2.70
2017-12-13T12:42:34.174Z,2.70
2017-12-13T12:45:02.315Z,2.70
2017-12-13T12:47:30.448Z,2.70
2017-12-13T12:49:58.741Z,2.70
2017-12-13T12:52:27.270Z,2.70
2017-12-13T12:54:55.712Z,2.70
2017-12-13T12:57:45.115Z,2.70
2017-12-13T13:00:15.511Z,2.70
2017-12-13T13:02:44.760Z,2.70
2017-12-13T13:07:57.103Z,2.80
2017-12-13T13:10:27.923Z,2.80
2017-12-13T13:12:59.710Z,2.80
2017-12-13T13:15:27.993Z,2.80
2017-12-13T13:18:07.733Z,2.70
2017-12-13T13:20:35.919Z,2.70
2017-12-13T13:23:09.505Z,2.80
2017-12-13T13:25:37.692Z,2.80
2017-12-13T13:28:06.303Z,2.80
2017-12-13T13:30:34.544Z,2.80
2017-12-13T13:33:02.719Z,2.70
2017-12-13T13:35:30.891Z,2.70
2017-12-13T13:38:00.226Z,2.70
2017-12-13T13:40:28.471Z,2.70
2017-12-13T13:42:56.720Z,2.70
2017-12-13T13:45:25.009Z,2.70
2017-12-13T13:47:54.269Z,2.70
2017-12-13T13:50:23.445Z,2.70
2017-12-13T13:52:55.003Z,2.60
2017-12-13T13:55:25.111Z,2.60
2017-12-13T13:57:54.273Z,2.60
2017-12-13T14:00:22.427Z,2.50
2017-12-13T14:02:50.552Z,2.60
2017-12-13T14:05:18.969Z,2.50
2017-12-13T14:07:48.062Z,2.50
2017-12-13T14:10:16.503Z,2.50
2017-12-13T14:12:44.853Z,2.50
2017-12-13T14:15:15.726Z,2.50
2017-12-13T14:17:49.422Z,2.50
2017-12-13T14:20:17.600Z,2.50
2017-12-13T14:22:45.845Z,2.40
2017-12-13T14:25:14.278Z,2.50
2017-12-13T14:27:46.756Z,2.50
2017-12-13T14:30:14.955Z,2.50
2017-12-13T14:32:44.238Z,2.50
2017-12-13T14:37:49.926Z,2.40
2017-12-13T14:40:18.171Z,2.40
2017-12-13T14:42:46.366Z,2.40
2017-12-13T14:45:16.520Z,2.40
2017-12-13T14:47:44.737Z,2.40
2017-12-13T14:50:31.858Z,2.40
2017-12-13T14:52:59.984Z,2.40
2017-12-13T14:55:35.356Z,2.40
2017-12-13T14:58:05.409Z,2.40
2017-12-13T15:00:34.734Z,2.40
2017-12-13T15:03:03.762Z,2.40
2017-12-13T15:08:04.852Z,2.40
2017-12-13T15:10:33.123Z,2.40
2017-12-13T15:13:03.555Z,2.40
2017-12-13T15:15:32.670Z,2.40
2017-12-13T15:18:01.651Z,2.30
2017-12-13T15:20:40.848Z,2.30
2017-12-13T15:23:11.894Z,2.20
2017-12-13T15:25:43.717Z,2.20
2017-12-13T15:28:12.813Z,2.20
2017-12-13T15:30:47.729Z,2.20
2017-12-13T15:33:19.943Z,2.20
2017-12-13T15:35:48.416Z,2.20
2017-12-13T15:38:16.642Z,2.20
2017-12-13T15:40:49.714Z,2.20
2017-12-13T15:43:18.790Z,2.20
2017-12-13T15:45:49.179Z,2.20
2017-12-13T15:48:17.500Z,2.20
2017-12-13T15:50:53.151Z,2.30
2017-12-13T15:53:21.375Z,2.30
2017-12-13T15:55:50.628Z,2.30
2017-12-13T15:58:21.198Z,2.30
2017-12-13T16:00:49.821Z,2.30
2017-12-13T16:03:18.840Z,2.30
2017-12-13T16:05:47.682Z,2.40
2017-12-13T16:08:18.050Z,2.40
2017-12-13T16:10:46.219Z,2.40
2017-12-13T16:13:15.347Z,2.40
2017-12-13T16:15:43.719Z,2.40
2017-12-13T16:18:11.969Z,2.40
2017-12-13T16:20:42.901Z,2.30
2017-12-13T16:23:11.810Z,2.30
2017-12-13T16:25:41.298Z,2.30
2017-12-13T16:28:09.640Z,2.30
2017-12-13T16:30:37.790Z,2.30
2017-12-13T16:33:06.973Z,2.30
2017-12-13T16:35:39.482Z,2.30
2017-12-13T16:38:12.981Z,2.30
2017-12-13T16:40:41.192Z,2.30
2017-12-13T16:43:10.392Z,2.20
2017-12-13T16:45:38.850Z,2.30
2017-12-13T16:48:07.095Z,2.20
2017-12-13T16:50:35.615Z,2.20
2017-12-13T16:53:03.826Z,2.30
2017-12-13T16:55:36.397Z,2.20
2017-12-13T16:58:04.719Z,2.20
2017-12-13T17:00:32.831Z,2.20
2017-12-13T17:03:03.984Z,2.20
2017-12-13T17:08:09.644Z,2.10
2017-12-13T17:10:39.790Z,2.10
2017-12-13T17:13:08.715Z,2.10
2017-12-13T17:15:37.374Z,2.10
2017-12-13T17:18:06.138Z,2.10
2017-12-13T17:20:40.349Z,2.10
2017-12-13T17:23:11.986Z,2.10
2017-12-13T17:25:45.078Z,2.10
2017-12-13T17:28:15.552Z,2.10
2017-12-13T17:30:59.186Z,2.10
2017-12-13T17:33:44.170Z,2.10
2017-12-13T17:36:12.613Z,2.10
2017-12-13T17:38:41.735Z,2.10
2017-12-13T17:41:17.958Z,2.00
2017-12-13T17:43:48.803Z,2.00
2017-12-13T17:46:17.014Z,2.00
2017-12-13T17:48:47.082Z,1.90
2017-12-13T17:51:16.281Z,1.90
2017-12-13T17:53:49.251Z,1.90
2017-12-13T17:56:19.283Z,1.80
2017-12-13T17:59:09.496Z,1.80
2017-12-13T18:01:37.685Z,1.80
2017-12-13T18:04:16.471Z,1.80
2017-12-13T18:06:44.618Z,1.80
2017-12-13T18:09:23.326Z,1.90
2017-12-13T18:11:54.576Z,1.90
2017-12-13T18:14:23.492Z,1.80
2017-12-13T18:16:51.675Z,1.80
2017-12-13T18:19:20.863Z,1.90
2017-12-13T18:21:51.008Z,1.90
2017-12-13T18:24:20.199Z,1.90
2017-12-13T18:26:48.379Z,1.90
2017-12-13T18:29:16.559Z,2.00
2017-12-13T18:32:05.320Z,2.00
2017-12-13T18:34:33.465Z,2.10
2017-12-13T18:37:03.373Z,2.20
2017-12-13T18:39:32.432Z,2.10
2017-12-13T18:42:00.801Z,2.20
2017-12-13T18:44:28.927Z,2.20
2017-12-13T18:46:57.182Z,2.30
2017-12-13T18:49:25.431Z,2.30
2017-12-13T18:51:53.781Z,2.30
2017-12-13T18:54:30.395Z,2.30
2017-12-13T18:56:58.607Z,2.30
2017-12-13T18:59:39.197Z,2.30
2017-12-13T19:02:07.413Z,2.40
2017-12-13T19:04:36.738Z,2.40
2017-12-13T19:07:06.863Z,2.40
2017-12-13T19:09:36.114Z,2.50
2017-12-13T19:12:07.214Z,2.50
2017-12-13T19:14:36.446Z,2.60
2017-12-13T19:17:04.605Z,2.60
2017-12-13T19:19:56.318Z,2.60
2017-12-13T19:22:37.160Z,2.60
2017-12-13T19:25:09.957Z,2.60
2017-12-13T19:27:38.081Z,2.70
2017-12-13T19:30:06.263Z,2.70
2017-12-13T19:32:44.626Z,2.70
2017-12-13T19:35:12.842Z,2.80
2017-12-13T19:37:40.991Z,2.80
2017-12-13T19:40:14.642Z,2.80
2017-12-13T19:42:47.560Z,2.80
2017-12-13T19:45:15.733Z,2.90
2017-12-13T19:47:44.080Z,2.90
2017-12-13T19:50:13.349Z,2.90
2017-12-13T19:52:41.626Z,3.00
2017-12-13T19:55:09.744Z,3.00
2017-12-13T19:57:38.072Z,3.10
2017-12-13T20:00:06.294Z,3.10
2017-12-13T20:02:41.334Z,3.20
2017-12-13T20:05:09.508Z,3.20
2017-12-13T20:07:37.719Z,3.30
2017-12-13T20:10:05.959Z,3.30
2017-12-13T20:12:34.258Z,3.30
2017-12-13T20:15:14.286Z,3.30
2017-12-13T20:17:42.472Z,3.30
2017-12-13T20:20:10.635Z,3.30
2017-12-13T20:22:39.767Z,3.40
2017-12-13T20:25:11.294Z,3.40
2017-12-13T20:27:39.473Z,3.40
2017-12-13T20:30:07.615Z,3.50
2017-12-13T20:32:36.088Z,3.50
2017-12-13T20:35:05.353Z,3.50
2017-12-13T20:37:54.551Z,3.50
2017-12-13T20:40:25.909Z,3.50
2017-12-13T20:42:54.085Z,3.60
2017-12-13T20:45:24.277Z,3.60
2017-12-13T20:47:52.877Z,3.60
2017-12-13T20:50:21.084Z,3.70
2017-12-13T20:52:52.348Z,3.70
2017-12-13T20:55:33.173Z,3.70
2017-12-13T20:58:01.423Z,3.70
2017-12-13T21:00:36.566Z,3.80
2017-12-13T21:03:04.848Z,3.80
2017-12-13T21:05:39.426Z,3.80
2017-12-13T21:08:09.667Z,3.80
2017-12-13T21:10:39.560Z,3.80
2017-12-13T21:13:18.196Z,3.80
2017-12-13T21:15:46.437Z,3.80
2017-12-13T21:18:19.938Z,3.80
2017-12-13T21:20:52.910Z,3.80
2017-12-13T21:23:21.046Z,3.80
2017-12-13T21:25:49.260Z,3.80
2017-12-13T21:28:17.391Z,3.80
2017-12-13T21:30:46.473Z,3.80
2017-12-13T21:33:14.578Z,3.70
2017-12-13T21:35:43.726Z,3.80
2017-12-13T21:41:12.326Z,3.80
2017-12-13T21:43:40.462Z,3.70
2017-12-13T21:46:10.367Z,3.70
2017-12-13T21:48:40.547Z,3.70
2017-12-13T21:51:09.654Z,3.70
2017-12-13T21:53:38.766Z,3.70
2017-12-13T21:56:07.662Z,3.70
2017-12-13T21:58:46.915Z,3.70
2017-12-13T22:01:15.126Z,3.70
2017-12-13T22:03:48.968Z,3.70
2017-12-13T22:06:18.142Z,3.70
2017-12-13T22:08:46.319Z,3.70
2017-12-13T22:11:14.468Z,3.70
2017-12-13T22:13:42.665Z,3.60
2017-12-13T22:16:23.048Z,3.60
2017-12-13T22:18:57.894Z,3.60
2017-12-13T22:21:27.055Z,3.50
2017-12-13T22:23:56.264Z,3.50
2017-12-13T22:26:42.690Z,3.40
2017-12-13T22:29:10.868Z,3.40
2017-12-13T22:31:39.115Z,3.30
2017-12-13T22:34:10.941Z,3.30
2017-12-13T22:36:39.060Z,3.30
2017-12-13T22:39:09.362Z,3.30
2017-12-13T22:41:37.578Z,3.20
2017-12-13T22:44:10.790Z,3.20
2017-12-13T22:46:42.562Z,3.20
2017-12-13T22:49:12.455Z,3.10
2017-12-13T22:51:40.665Z,3.20
2017-12-13T22:54:09.842Z,3.10
2017-12-13T22:56:42.781Z,3.10
2017-12-13T22:59:10.888Z,3.10
2017-12-13T23:01:39.077Z,3.10
2017-12-13T23:04:07.684Z,3.10
2017-12-13T23:06:37.877Z,3.00
2017-12-13T23:09:06.037Z,3.00
2017-12-13T23:11:34.162Z,3.00
2017-12-13T23:14:02.304Z,2.90
2017-12-13T23:16:41.025Z,2.90
2017-12-13T23:19:10.234Z,2.80
2017-12-13T23:21:38.398Z,2.80
2017-12-13T23:24:07.107Z,2.70
2017-12-13T23:26:35.206Z,2.70
2017-12-13T23:29:03.438Z,2.60
2017-12-13T23:31:31.615Z,2.60
2017-12-13T23:34:00.781Z,2.60
2017-12-13T23:36:29.716Z,2.50
2017-12-13T23:38:59.084Z,2.50
2017-12-13T23:41:41.038Z,2.50
2017-12-13T23:44:10.160Z,2.40
2017-12-13T23:46:40.520Z,2.40
2017-12-13T23:49:27.239Z,2.30
2017-12-13T23:52:02.258Z,2.30
2017-12-13T23:54:40.915Z,2.10
2017-12-13T23:57:09.962Z,2.10
2017-12-13T23:59:38.220Z,2.10
